Terminal Aerodrome Forecast
Issued by NWS

Home | Current Version | Previous Version | Text Only | Print | Product List | Glossary On
Versions: 1 2 3 4 5 6 7 8 9 10 11 12 13
000
FTUS42 TJSJ 231700 RRA
TAFJPS
TAF
TJPS 231742Z 2318/2418 17012KT P6SM SCT030 SCT060
     FM232300 06005KT P6SM SCT030 SCT060
     FM241500 13012KT P6SM SCT030 SCT060=

USA.gov is the U.S. government's official web portal to all federal, state and local government web resources and services.